sensor_id;sensor_type;location;lat;lon;timestamp;P1;durP1;ratioP1;P2;durP2;ratioP2
39918;SDS011;25589;51.552;13.424;2023-01-29T00:02:01;12.70;;;11.45;;
39918;SDS011;25589;51.552;13.424;2023-01-29T00:04:28;15.80;;;14.20;;
39918;SDS011;25589;51.552;13.424;2023-01-29T00:06:54;8.93;;;8.02;;
39918;SDS011;25589;51.552;13.424;2023-01-29T00:09:19;5.75;;;4.93;;
39918;SDS011;25589;51.552;13.424;2023-01-29T00:11:45;5.35;;;4.35;;
39918;SDS011;25589;51.552;13.424;2023-01-29T00:14:11;6.60;;;6.00;;
39918;SDS011;25589;51.552;13.424;2023-01-29T00:16:37;7.50;;;5.82;;
39918;SDS011;25589;51.552;13.424;2023-01-29T00:19:02;6.70;;;6.00;;
39918;SDS011;25589;51.552;13.424;2023-01-29T00:21:28;5.70;;;4.15;;
39918;SDS011;25589;51.552;13.424;2023-01-29T00:23:57;5.80;;;4.63;;
39918;SDS011;25589;51.552;13.424;2023-01-29T00:26:24;5.03;;;4.32;;
39918;SDS011;25589;51.552;13.424;2023-01-29T00:28:50;7.32;;;4.93;;
39918;SDS011;25589;51.552;13.424;2023-01-29T00:31:18;5.40;;;4.38;;
39918;SDS011;25589;51.552;13.424;2023-01-29T00:33:44;6.80;;;4.30;;
39918;SDS011;25589;51.552;13.424;2023-01-29T00:36:11;6.18;;;4.45;;
39918;SDS011;25589;51.552;13.424;2023-01-29T00:38:38;4.20;;;3.80;;
39918;SDS011;25589;51.552;13.424;2023-01-29T00:41:05;5.15;;;4.00;;
39918;SDS011;25589;51.552;13.424;2023-01-29T00:43:53;3.90;;;3.55;;
39918;SDS011;25589;51.552;13.424;2023-01-29T00:46:37;4.10;;;3.67;;
39918;SDS011;25589;51.552;13.424;2023-01-29T00:49:03;4.72;;;3.88;;
39918;SDS011;25589;51.552;13.424;2023-01-29T00:51:29;6.45;;;3.88;;
39918;SDS011;25589;51.552;13.424;2023-01-29T00:53:55;5.25;;;3.33;;
39918;SDS011;25589;51.552;13.424;2023-01-29T00:56:23;4.05;;;3.65;;
39918;SDS011;25589;51.552;13.424;2023-01-29T00:58:49;5.95;;;3.63;;
39918;SDS011;25589;51.552;13.424;2023-01-29T01:01:15;4.05;;;3.60;;
39918;SDS011;25589;51.552;13.424;2023-01-29T01:03:40;5.28;;;3.20;;
39918;SDS011;25589;51.552;13.424;2023-01-29T01:06:06;3.17;;;2.88;;
39918;SDS011;25589;51.552;13.424;2023-01-29T01:08:34;39.78;;;34.60;;
39918;SDS011;25589;51.552;13.424;2023-01-29T01:11:18;79.70;;;43.45;;
39918;SDS011;25589;51.552;13.424;2023-01-29T01:13:46;91.20;;;51.03;;
39918;SDS011;25589;51.552;13.424;2023-01-29T01:16:12;40.60;;;26.95;;
39918;SDS011;25589;51.552;13.424;2023-01-29T01:18:39;24.05;;;16.52;;
39918;SDS011;25589;51.552;13.424;2023-01-29T01:21:05;8.70;;;5.38;;
39918;SDS011;25589;51.552;13.424;2023-01-29T01:23:31;8.73;;;5.43;;
39918;SDS011;25589;51.552;13.424;2023-01-29T01:25:57;11.48;;;8.02;;
39918;SDS011;25589;51.552;13.424;2023-01-29T01:28:23;6.45;;;4.85;;
39918;SDS011;25589;51.552;13.424;2023-01-29T01:30:49;13.13;;;8.07;;
39918;SDS011;25589;51.552;13.424;2023-01-29T01:33:15;13.82;;;9.10;;
39918;SDS011;25589;51.552;13.424;2023-01-29T01:35:40;4.22;;;3.83;;
39918;SDS011;25589;51.552;13.424;2023-01-29T01:38:06;6.10;;;4.32;;
39918;SDS011;25589;51.552;13.424;2023-01-29T01:40:31;4.00;;;3.45;;
39918;SDS011;25589;51.552;13.424;2023-01-29T01:42:59;4.63;;;3.13;;
39918;SDS011;25589;51.552;13.424;2023-01-29T01:45:32;3.55;;;2.47;;
39918;SDS011;25589;51.552;13.424;2023-01-29T01:50:45;3.63;;;3.33;;
39918;SDS011;25589;51.552;13.424;2023-01-29T01:53:14;5.28;;;2.75;;
39918;SDS011;25589;51.552;13.424;2023-01-29T01:55:46;5.45;;;2.85;;
39918;SDS011;25589;51.552;13.424;2023-01-29T01:58:16;5.85;;;3.25;;
39918;SDS011;25589;51.552;13.424;2023-01-29T02:00:48;4.50;;;2.63;;
39918;SDS011;25589;51.552;13.424;2023-01-29T02:03:14;8.63;;;3.33;;
39918;SDS011;25589;51.552;13.424;2023-01-29T02:06:00;3.33;;;3.00;;
39918;SDS011;25589;51.552;13.424;2023-01-29T02:08:52;5.43;;;3.38;;
39918;SDS011;25589;51.552;13.424;2023-01-29T02:11:41;4.20;;;3.38;;
39918;SDS011;25589;51.552;13.424;2023-01-29T02:14:06;5.35;;;3.53;;
39918;SDS011;25589;51.552;13.424;2023-01-29T02:16:34;7.13;;;3.60;;
39918;SDS011;25589;51.552;13.424;2023-01-29T02:19:02;4.03;;;3.53;;
39918;SDS011;25589;51.552;13.424;2023-01-29T02:24:26;4.78;;;3.70;;
39918;SDS011;25589;51.552;13.424;2023-01-29T02:27:21;8.18;;;3.58;;
39918;SDS011;25589;51.552;13.424;2023-01-29T02:32:46;6.60;;;5.72;;
39918;SDS011;25589;51.552;13.424;2023-01-29T02:35:28;139.85;;;54.33;;
39918;SDS011;25589;51.552;13.424;2023-01-29T02:40:50;101.80;;;53.38;;
39918;SDS011;25589;51.552;13.424;2023-01-29T02:43:29;9.93;;;6.90;;
39918;SDS011;25589;51.552;13.424;2023-01-29T02:48:52;23.63;;;14.93;;
39918;SDS011;25589;51.552;13.424;2023-01-29T02:51:25;9.93;;;5.88;;
39918;SDS011;25589;51.552;13.424;2023-01-29T02:54:02;13.15;;;8.00;;
39918;SDS011;25589;51.552;13.424;2023-01-29T02:56:37;5.32;;;4.15;;
39918;SDS011;25589;51.552;13.424;2023-01-29T02:59:12;8.23;;;5.53;;
39918;SDS011;25589;51.552;13.424;2023-01-29T03:01:47;5.97;;;5.38;;
39918;SDS011;25589;51.552;13.424;2023-01-29T03:04:21;5.13;;;4.40;;
39918;SDS011;25589;51.552;13.424;2023-01-29T03:06:56;10.00;;;4.45;;
39918;SDS011;25589;51.552;13.424;2023-01-29T03:09:33;9.20;;;5.45;;
39918;SDS011;25589;51.552;13.424;2023-01-29T03:12:12;9.05;;;6.50;;
39918;SDS011;25589;51.552;13.424;2023-01-29T03:15:08;4.65;;;3.95;;
39918;SDS011;25589;51.552;13.424;2023-01-29T03:17:50;4.82;;;3.75;;
39918;SDS011;25589;51.552;13.424;2023-01-29T03:20:36;5.13;;;4.20;;
39918;SDS011;25589;51.552;13.424;2023-01-29T03:23:14;6.78;;;6.07;;
39918;SDS011;25589;51.552;13.424;2023-01-29T03:25:42;5.15;;;4.65;;
39918;SDS011;25589;51.552;13.424;2023-01-29T03:28:29;7.82;;;4.43;;
39918;SDS011;25589;51.552;13.424;2023-01-29T03:31:16;6.85;;;5.35;;
39918;SDS011;25589;51.552;13.424;2023-01-29T03:36:42;5.82;;;4.93;;
39918;SDS011;25589;51.552;13.424;2023-01-29T03:39:15;6.63;;;4.50;;
39918;SDS011;25589;51.552;13.424;2023-01-29T03:47:36;7.25;;;4.55;;
39918;SDS011;25589;51.552;13.424;2023-01-29T03:50:20;5.68;;;4.50;;
39918;SDS011;25589;51.552;13.424;2023-01-29T03:53:02;7.90;;;5.22;;
39918;SDS011;25589;51.552;13.424;2023-01-29T04:00:51;6.95;;;5.15;;
39918;SDS011;25589;51.552;13.424;2023-01-29T04:03:30;5.50;;;4.97;;
39918;SDS011;25589;51.552;13.424;2023-01-29T04:06:15;5.22;;;4.75;;
39918;SDS011;25589;51.552;13.424;2023-01-29T04:11:49;6.80;;;5.25;;
39918;SDS011;25589;51.552;13.424;2023-01-29T04:14:31;7.63;;;5.50;;
39918;SDS011;25589;51.552;13.424;2023-01-29T04:16:59;7.18;;;4.82;;
39918;SDS011;25589;51.552;13.424;2023-01-29T04:19:45;5.72;;;4.95;;
39918;SDS011;25589;51.552;13.424;2023-01-29T04:22:14;6.60;;;5.30;;
39918;SDS011;25589;51.552;13.424;2023-01-29T04:24:42;8.73;;;5.50;;
39918;SDS011;25589;51.552;13.424;2023-01-29T04:30:21;6.88;;;5.78;;
39918;SDS011;25589;51.552;13.424;2023-01-29T04:41:07;9.55;;;5.70;;
39918;SDS011;25589;51.552;13.424;2023-01-29T04:43:43;8.32;;;6.00;;
39918;SDS011;25589;51.552;13.424;2023-01-29T04:56:48;9.77;;;6.28;;
39918;SDS011;25589;51.552;13.424;2023-01-29T04:59:21;8.40;;;6.03;;
39918;SDS011;25589;51.552;13.424;2023-01-29T05:02:06;8.23;;;5.78;;
39918;SDS011;25589;51.552;13.424;2023-01-29T05:04:34;10.32;;;6.63;;
39918;SDS011;25589;51.552;13.424;2023-01-29T05:07:03;10.55;;;7.07;;
39918;SDS011;25589;51.552;13.424;2023-01-29T05:09:32;8.63;;;6.05;;
39918;SDS011;25589;51.552;13.424;2023-01-29T05:12:00;8.77;;;6.25;;
39918;SDS011;25589;51.552;13.424;2023-01-29T05:14:27;9.10;;;6.63;;
39918;SDS011;25589;51.552;13.424;2023-01-29T05:16:54;10.90;;;6.75;;
39918;SDS011;25589;51.552;13.424;2023-01-29T05:19:21;10.27;;;6.90;;
39918;SDS011;25589;51.552;13.424;2023-01-29T05:21:47;11.82;;;6.88;;
39918;SDS011;25589;51.552;13.424;2023-01-29T05:24:15;15.18;;;7.47;;
39918;SDS011;25589;51.552;13.424;2023-01-29T05:26:43;13.38;;;7.57;;
39918;SDS011;25589;51.552;13.424;2023-01-29T05:29:29;12.45;;;7.07;;
39918;SDS011;25589;51.552;13.424;2023-01-29T05:31:55;13.25;;;7.72;;
39918;SDS011;25589;51.552;13.424;2023-01-29T05:34:20;10.43;;;8.05;;
39918;SDS011;25589;51.552;13.424;2023-01-29T05:36:46;9.85;;;7.40;;
39918;SDS011;25589;51.552;13.424;2023-01-29T05:39:11;14.32;;;8.23;;
39918;SDS011;25589;51.552;13.424;2023-01-29T05:41:37;14.48;;;8.52;;
39918;SDS011;25589;51.552;13.424;2023-01-29T05:44:02;11.70;;;7.82;;
39918;SDS011;25589;51.552;13.424;2023-01-29T05:46:28;12.00;;;7.85;;
39918;SDS011;25589;51.552;13.424;2023-01-29T05:48:54;12.25;;;8.35;;
39918;SDS011;25589;51.552;13.424;2023-01-29T05:51:19;11.10;;;7.93;;
39918;SDS011;25589;51.552;13.424;2023-01-29T05:53:45;11.18;;;7.38;;
39918;SDS011;25589;51.552;13.424;2023-01-29T05:56:10;11.15;;;7.07;;
39918;SDS011;25589;51.552;13.424;2023-01-29T05:58:36;13.45;;;7.82;;
39918;SDS011;25589;51.552;13.424;2023-01-29T06:01:12;12.60;;;8.23;;
39918;SDS011;25589;51.552;13.424;2023-01-29T06:03:39;10.77;;;7.55;;
39918;SDS011;25589;51.552;13.424;2023-01-29T06:06:05;11.05;;;7.60;;
39918;SDS011;25589;51.552;13.424;2023-01-29T06:08:30;11.90;;;7.80;;
39918;SDS011;25589;51.552;13.424;2023-01-29T06:10:56;11.82;;;7.93;;
39918;SDS011;25589;51.552;13.424;2023-01-29T06:13:21;11.95;;;8.18;;
39918;SDS011;25589;51.552;13.424;2023-01-29T06:15:47;10.82;;;7.75;;
39918;SDS011;25589;51.552;13.424;2023-01-29T06:18:12;12.38;;;8.02;;
39918;SDS011;25589;51.552;13.424;2023-01-29T06:20:38;10.18;;;7.35;;
39918;SDS011;25589;51.552;13.424;2023-01-29T06:23:04;15.93;;;8.88;;
39918;SDS011;25589;51.552;13.424;2023-01-29T06:25:29;16.73;;;8.40;;
39918;SDS011;25589;51.552;13.424;2023-01-29T06:27:55;14.60;;;8.80;;
39918;SDS011;25589;51.552;13.424;2023-01-29T06:30:21;13.55;;;8.30;;
39918;SDS011;25589;51.552;13.424;2023-01-29T06:32:46;12.23;;;9.32;;
39918;SDS011;25589;51.552;13.424;2023-01-29T06:35:12;13.32;;;8.68;;
39918;SDS011;25589;51.552;13.424;2023-01-29T06:37:38;13.98;;;8.85;;
39918;SDS011;25589;51.552;13.424;2023-01-29T06:40:03;10.80;;;8.50;;
39918;SDS011;25589;51.552;13.424;2023-01-29T06:42:29;12.25;;;8.63;;
39918;SDS011;25589;51.552;13.424;2023-01-29T06:44:55;10.38;;;7.45;;
39918;SDS011;25589;51.552;13.424;2023-01-29T06:47:21;15.05;;;7.95;;
39918;SDS011;25589;51.552;13.424;2023-01-29T06:49:48;13.30;;;8.88;;
39918;SDS011;25589;51.552;13.424;2023-01-29T06:52:13;13.18;;;8.85;;
39918;SDS011;25589;51.552;13.424;2023-01-29T06:54:39;15.00;;;8.52;;
39918;SDS011;25589;51.552;13.424;2023-01-29T06:57:05;15.05;;;8.57;;
39918;SDS011;25589;51.552;13.424;2023-01-29T06:59:30;16.67;;;9.18;;
39918;SDS011;25589;51.552;13.424;2023-01-29T07:01:56;14.82;;;9.25;;
39918;SDS011;25589;51.552;13.424;2023-01-29T07:04:21;14.02;;;9.30;;
39918;SDS011;25589;51.552;13.424;2023-01-29T07:06:47;19.73;;;8.93;;
39918;SDS011;25589;51.552;13.424;2023-01-29T07:09:12;15.23;;;9.25;;
39918;SDS011;25589;51.552;13.424;2023-01-29T07:11:38;12.35;;;9.00;;
39918;SDS011;25589;51.552;13.424;2023-01-29T07:14:04;15.15;;;8.57;;
39918;SDS011;25589;51.552;13.424;2023-01-29T07:16:30;15.68;;;9.20;;
39918;SDS011;25589;51.552;13.424;2023-01-29T07:18:56;14.15;;;9.57;;
39918;SDS011;25589;51.552;13.424;2023-01-29T07:21:22;19.05;;;10.98;;
39918;SDS011;25589;51.552;13.424;2023-01-29T07:23:47;13.93;;;9.07;;
39918;SDS011;25589;51.552;13.424;2023-01-29T07:26:13;11.75;;;8.40;;
39918;SDS011;25589;51.552;13.424;2023-01-29T07:28:39;15.70;;;9.10;;
39918;SDS011;25589;51.552;13.424;2023-01-29T07:31:05;14.88;;;9.10;;
39918;SDS011;25589;51.552;13.424;2023-01-29T07:36:52;13.55;;;8.95;;
39918;SDS011;25589;51.552;13.424;2023-01-29T07:39:17;13.90;;;8.70;;
39918;SDS011;25589;51.552;13.424;2023-01-29T07:41:43;13.48;;;9.05;;
39918;SDS011;25589;51.552;13.424;2023-01-29T07:44:14;15.00;;;8.75;;
39918;SDS011;25589;51.552;13.424;2023-01-29T07:46:39;14.13;;;9.30;;
39918;SDS011;25589;51.552;13.424;2023-01-29T07:49:05;14.45;;;9.90;;
39918;SDS011;25589;51.552;13.424;2023-01-29T07:51:31;13.65;;;8.93;;
39918;SDS011;25589;51.552;13.424;2023-01-29T07:53:56;13.88;;;9.10;;
39918;SDS011;25589;51.552;13.424;2023-01-29T07:56:22;14.98;;;9.63;;
39918;SDS011;25589;51.552;13.424;2023-01-29T07:58:47;14.05;;;9.18;;
39918;SDS011;25589;51.552;13.424;2023-01-29T08:01:13;13.82;;;9.43;;
39918;SDS011;25589;51.552;13.424;2023-01-29T08:03:39;13.95;;;9.13;;
39918;SDS011;25589;51.552;13.424;2023-01-29T08:06:05;16.67;;;10.63;;
39918;SDS011;25589;51.552;13.424;2023-01-29T08:08:31;13.50;;;9.05;;
39918;SDS011;25589;51.552;13.424;2023-01-29T08:10:59;14.10;;;8.75;;
39918;SDS011;25589;51.552;13.424;2023-01-29T08:13:26;15.27;;;9.68;;
39918;SDS011;25589;51.552;13.424;2023-01-29T08:15:52;11.90;;;8.43;;
39918;SDS011;25589;51.552;13.424;2023-01-29T08:18:17;19.30;;;11.88;;
39918;SDS011;25589;51.552;13.424;2023-01-29T08:20:43;16.40;;;10.23;;
39918;SDS011;25589;51.552;13.424;2023-01-29T08:23:12;13.45;;;9.77;;
39918;SDS011;25589;51.552;13.424;2023-01-29T08:25:39;14.23;;;9.35;;
39918;SDS011;25589;51.552;13.424;2023-01-29T08:28:05;12.48;;;9.30;;
39918;SDS011;25589;51.552;13.424;2023-01-29T08:30:32;15.15;;;9.60;;
39918;SDS011;25589;51.552;13.424;2023-01-29T08:32:58;13.75;;;9.23;;
39918;SDS011;25589;51.552;13.424;2023-01-29T08:35:23;15.98;;;9.55;;
39918;SDS011;25589;51.552;13.424;2023-01-29T08:37:56;15.57;;;9.77;;
39918;SDS011;25589;51.552;13.424;2023-01-29T08:40:23;16.17;;;9.07;;
39918;SDS011;25589;51.552;13.424;2023-01-29T08:42:49;16.13;;;9.27;;
39918;SDS011;25589;51.552;13.424;2023-01-29T08:45:15;16.65;;;9.43;;
39918;SDS011;25589;51.552;13.424;2023-01-29T08:47:44;14.02;;;9.50;;
39918;SDS011;25589;51.552;13.424;2023-01-29T08:50:14;14.98;;;9.85;;
39918;SDS011;25589;51.552;13.424;2023-01-29T08:52:41;15.20;;;10.13;;
39918;SDS011;25589;51.552;13.424;2023-01-29T08:55:07;15.38;;;9.88;;
39918;SDS011;25589;51.552;13.424;2023-01-29T08:57:34;15.38;;;10.13;;
39918;SDS011;25589;51.552;13.424;2023-01-29T09:00:00;12.65;;;8.70;;
39918;SDS011;25589;51.552;13.424;2023-01-29T09:02:25;16.27;;;8.70;;
39918;SDS011;25589;51.552;13.424;2023-01-29T09:04:51;15.30;;;10.15;;
39918;SDS011;25589;51.552;13.424;2023-01-29T09:07:16;15.13;;;9.52;;
39918;SDS011;25589;51.552;13.424;2023-01-29T09:09:42;15.40;;;9.35;;
39918;SDS011;25589;51.552;13.424;2023-01-29T09:12:08;14.82;;;9.80;;
39918;SDS011;25589;51.552;13.424;2023-01-29T09:14:33;15.07;;;9.48;;
39918;SDS011;25589;51.552;13.424;2023-01-29T09:16:59;17.88;;;9.70;;
39918;SDS011;25589;51.552;13.424;2023-01-29T09:19:25;16.90;;;8.93;;
39918;SDS011;25589;51.552;13.424;2023-01-29T09:21:50;16.48;;;10.45;;
39918;SDS011;25589;51.552;13.424;2023-01-29T09:24:16;15.30;;;9.82;;
39918;SDS011;25589;51.552;13.424;2023-01-29T09:26:42;17.67;;;10.32;;
39918;SDS011;25589;51.552;13.424;2023-01-29T09:29:08;15.80;;;10.20;;
39918;SDS011;25589;51.552;13.424;2023-01-29T09:31:34;14.60;;;9.00;;
39918;SDS011;25589;51.552;13.424;2023-01-29T09:34:00;14.35;;;9.68;;
39918;SDS011;25589;51.552;13.424;2023-01-29T09:36:25;15.25;;;10.52;;
39918;SDS011;25589;51.552;13.424;2023-01-29T09:38:51;14.80;;;9.95;;
39918;SDS011;25589;51.552;13.424;2023-01-29T09:41:27;19.10;;;10.75;;
39918;SDS011;25589;51.552;13.424;2023-01-29T09:44:00;15.65;;;9.90;;
39918;SDS011;25589;51.552;13.424;2023-01-29T09:46:32;16.05;;;10.90;;
39918;SDS011;25589;51.552;13.424;2023-01-29T09:49:09;14.18;;;9.45;;
39918;SDS011;25589;51.552;13.424;2023-01-29T09:51:40;16.00;;;9.60;;
39918;SDS011;25589;51.552;13.424;2023-01-29T09:54:15;18.00;;;10.00;;
39918;SDS011;25589;51.552;13.424;2023-01-29T09:56:51;13.38;;;9.77;;
39918;SDS011;25589;51.552;13.424;2023-01-29T09:59:20;19.25;;;10.15;;
39918;SDS011;25589;51.552;13.424;2023-01-29T10:05:01;14.68;;;10.18;;
39918;SDS011;25589;51.552;13.424;2023-01-29T10:07:58;15.50;;;9.98;;
39918;SDS011;25589;51.552;13.424;2023-01-29T10:10:48;16.60;;;10.75;;
39918;SDS011;25589;51.552;13.424;2023-01-29T10:16:06;15.02;;;10.45;;
39918;SDS011;25589;51.552;13.424;2023-01-29T10:21:27;17.17;;;10.80;;
39918;SDS011;25589;51.552;13.424;2023-01-29T10:24:21;15.38;;;10.45;;
39918;SDS011;25589;51.552;13.424;2023-01-29T10:26:54;14.82;;;10.63;;
39918;SDS011;25589;51.552;13.424;2023-01-29T10:29:20;18.67;;;10.18;;
39918;SDS011;25589;51.552;13.424;2023-01-29T10:31:50;17.75;;;10.63;;
39918;SDS011;25589;51.552;13.424;2023-01-29T10:34:22;15.65;;;10.52;;
39918;SDS011;25589;51.552;13.424;2023-01-29T10:36:53;14.55;;;10.63;;
39918;SDS011;25589;51.552;13.424;2023-01-29T10:39:21;16.90;;;11.18;;
39918;SDS011;25589;51.552;13.424;2023-01-29T10:44:58;17.23;;;11.38;;
39918;SDS011;25589;51.552;13.424;2023-01-29T10:47:57;14.82;;;10.07;;
39918;SDS011;25589;51.552;13.424;2023-01-29T10:50:46;15.75;;;9.32;;
39918;SDS011;25589;51.552;13.424;2023-01-29T10:53:18;17.00;;;11.00;;
39918;SDS011;25589;51.552;13.424;2023-01-29T10:58:48;16.30;;;10.45;;
39918;SDS011;25589;51.552;13.424;2023-01-29T11:01:16;16.20;;;10.93;;
39918;SDS011;25589;51.552;13.424;2023-01-29T11:03:41;15.98;;;10.38;;
39918;SDS011;25589;51.552;13.424;2023-01-29T11:06:15;16.63;;;11.20;;
39918;SDS011;25589;51.552;13.424;2023-01-29T11:08:53;18.85;;;10.75;;
39918;SDS011;25589;51.552;13.424;2023-01-29T11:11:25;20.08;;;12.05;;
39918;SDS011;25589;51.552;13.424;2023-01-29T11:14:00;15.65;;;10.45;;
39918;SDS011;25589;51.552;13.424;2023-01-29T11:16:40;15.48;;;10.32;;
39918;SDS011;25589;51.552;13.424;2023-01-29T11:19:08;15.40;;;10.52;;
39918;SDS011;25589;51.552;13.424;2023-01-29T11:21:49;14.70;;;10.25;;
39918;SDS011;25589;51.552;13.424;2023-01-29T11:24:17;17.95;;;10.32;;
39918;SDS011;25589;51.552;13.424;2023-01-29T11:26:45;17.77;;;11.60;;
39918;SDS011;25589;51.552;13.424;2023-01-29T11:32:06;16.02;;;10.38;;
39918;SDS011;25589;51.552;13.424;2023-01-29T11:34:54;17.67;;;11.18;;
39918;SDS011;25589;51.552;13.424;2023-01-29T11:37:30;20.35;;;11.38;;
39918;SDS011;25589;51.552;13.424;2023-01-29T11:40:49;14.52;;;10.15;;
39918;SDS011;25589;51.552;13.424;2023-01-29T11:42:56;15.68;;;10.88;;
39918;SDS011;25589;51.552;13.424;2023-01-29T11:45:47;16.85;;;10.13;;
39918;SDS011;25589;51.552;13.424;2023-01-29T11:48:16;25.13;;;12.50;;
39918;SDS011;25589;51.552;13.424;2023-01-29T11:50:43;17.60;;;11.15;;
39918;SDS011;25589;51.552;13.424;2023-01-29T11:58:58;15.23;;;10.02;;
39918;SDS011;25589;51.552;13.424;2023-01-29T12:01:35;16.35;;;10.40;;
39918;SDS011;25589;51.552;13.424;2023-01-29T12:04:03;18.80;;;12.23;;
39918;SDS011;25589;51.552;13.424;2023-01-29T12:06:43;19.75;;;12.25;;
39918;SDS011;25589;51.552;13.424;2023-01-29T12:09:14;14.05;;;9.55;;
39918;SDS011;25589;51.552;13.424;2023-01-29T12:11:43;16.40;;;10.18;;
39918;SDS011;25589;51.552;13.424;2023-01-29T12:16:58;13.68;;;9.32;;
39918;SDS011;25589;51.552;13.424;2023-01-29T12:22:16;14.93;;;10.25;;
39918;SDS011;25589;51.552;13.424;2023-01-29T12:25:00;14.70;;;9.82;;
39918;SDS011;25589;51.552;13.424;2023-01-29T12:27:45;17.77;;;10.80;;
39918;SDS011;25589;51.552;13.424;2023-01-29T12:30:33;16.38;;;10.57;;
39918;SDS011;25589;51.552;13.424;2023-01-29T12:33:38;19.50;;;11.20;;
39918;SDS011;25589;51.552;13.424;2023-01-29T12:38:48;15.68;;;10.25;;
39918;SDS011;25589;51.552;13.424;2023-01-29T12:41:24;18.52;;;11.05;;
39918;SDS011;25589;51.552;13.424;2023-01-29T12:46:40;18.48;;;12.63;;
39918;SDS011;25589;51.552;13.424;2023-01-29T12:49:17;17.20;;;10.50;;
39918;SDS011;25589;51.552;13.424;2023-01-29T12:51:52;16.20;;;10.35;;
39918;SDS011;25589;51.552;13.424;2023-01-29T12:54:22;17.83;;;11.18;;
39918;SDS011;25589;51.552;13.424;2023-01-29T12:56:57;15.45;;;10.50;;
39918;SDS011;25589;51.552;13.424;2023-01-29T12:59:40;16.67;;;9.98;;
39918;SDS011;25589;51.552;13.424;2023-01-29T13:02:14;14.65;;;10.07;;
39918;SDS011;25589;51.552;13.424;2023-01-29T13:04:56;15.40;;;9.38;;
39918;SDS011;25589;51.552;13.424;2023-01-29T13:07:27;17.42;;;9.88;;
39918;SDS011;25589;51.552;13.424;2023-01-29T13:10:08;14.15;;;9.68;;
39918;SDS011;25589;51.552;13.424;2023-01-29T13:12:38;16.02;;;10.00;;
39918;SDS011;25589;51.552;13.424;2023-01-29T13:15:14;14.30;;;9.52;;
39918;SDS011;25589;51.552;13.424;2023-01-29T13:17:50;16.52;;;10.13;;
39918;SDS011;25589;51.552;13.424;2023-01-29T13:20:22;14.23;;;10.05;;
39918;SDS011;25589;51.552;13.424;2023-01-29T13:22:51;14.43;;;9.57;;
39918;SDS011;25589;51.552;13.424;2023-01-29T13:25:20;14.45;;;9.43;;
39918;SDS011;25589;51.552;13.424;2023-01-29T13:27:46;17.23;;;10.70;;
39918;SDS011;25589;51.552;13.424;2023-01-29T13:30:27;16.58;;;9.68;;
39918;SDS011;25589;51.552;13.424;2023-01-29T13:32:55;16.05;;;10.52;;
39918;SDS011;25589;51.552;13.424;2023-01-29T13:35:33;16.40;;;9.40;;
39918;SDS011;25589;51.552;13.424;2023-01-29T13:38:01;15.65;;;10.43;;
39918;SDS011;25589;51.552;13.424;2023-01-29T13:40:27;19.17;;;9.57;;
39918;SDS011;25589;51.552;13.424;2023-01-29T13:42:55;16.90;;;10.43;;
39918;SDS011;25589;51.552;13.424;2023-01-29T13:47:50;15.48;;;10.07;;
39918;SDS011;25589;51.552;13.424;2023-01-29T13:52:53;12.65;;;8.45;;
39918;SDS011;25589;51.552;13.424;2023-01-29T13:58:01;13.75;;;9.18;;
39918;SDS011;25589;51.552;13.424;2023-01-29T14:00:48;15.00;;;9.15;;
39918;SDS011;25589;51.552;13.424;2023-01-29T14:05:41;31.90;;;14.45;;
39918;SDS011;25589;51.552;13.424;2023-01-29T14:13:39;34.13;;;17.20;;
39918;SDS011;25589;51.552;13.424;2023-01-29T14:18:48;18.48;;;9.90;;
39918;SDS011;25589;51.552;13.424;2023-01-29T14:21:25;15.55;;;9.55;;
39918;SDS011;25589;51.552;13.424;2023-01-29T14:23:54;20.27;;;11.70;;
39918;SDS011;25589;51.552;13.424;2023-01-29T14:26:28;17.30;;;9.90;;
39918;SDS011;25589;51.552;13.424;2023-01-29T14:28:59;26.33;;;13.95;;
39918;SDS011;25589;51.552;13.424;2023-01-29T14:31:29;12.93;;;8.93;;
39918;SDS011;25589;51.552;13.424;2023-01-29T14:34:01;15.32;;;9.38;;
39918;SDS011;25589;51.552;13.424;2023-01-29T14:36:28;13.77;;;9.40;;
39918;SDS011;25589;51.552;13.424;2023-01-29T14:39:02;13.25;;;8.60;;
39918;SDS011;25589;51.552;13.424;2023-01-29T14:41:29;17.50;;;9.20;;
39918;SDS011;25589;51.552;13.424;2023-01-29T14:47:00;15.52;;;9.05;;
39918;SDS011;25589;51.552;13.424;2023-01-29T14:52:25;16.33;;;9.10;;
39918;SDS011;25589;51.552;13.424;2023-01-29T14:54:53;14.77;;;9.07;;
39918;SDS011;25589;51.552;13.424;2023-01-29T14:57:23;14.40;;;9.45;;
39918;SDS011;25589;51.552;13.424;2023-01-29T14:59:52;17.83;;;10.43;;
39918;SDS011;25589;51.552;13.424;2023-01-29T15:02:21;15.85;;;8.90;;
39918;SDS011;25589;51.552;13.424;2023-01-29T15:04:57;19.42;;;10.23;;
39918;SDS011;25589;51.552;13.424;2023-01-29T15:07:37;14.85;;;9.50;;
39918;SDS011;25589;51.552;13.424;2023-01-29T15:10:14;16.88;;;10.25;;
39918;SDS011;25589;51.552;13.424;2023-01-29T15:12:49;13.15;;;8.35;;
39918;SDS011;25589;51.552;13.424;2023-01-29T15:15:32;13.77;;;9.35;;
39918;SDS011;25589;51.552;13.424;2023-01-29T15:23:38;16.80;;;10.65;;
39918;SDS011;25589;51.552;13.424;2023-01-29T15:26:05;16.13;;;9.15;;
39918;SDS011;25589;51.552;13.424;2023-01-29T15:28:35;15.98;;;8.63;;
39918;SDS011;25589;51.552;13.424;2023-01-29T15:31:03;14.80;;;9.27;;
39918;SDS011;25589;51.552;13.424;2023-01-29T15:33:32;13.55;;;8.30;;
39918;SDS011;25589;51.552;13.424;2023-01-29T15:35:59;15.68;;;9.30;;
39918;SDS011;25589;51.552;13.424;2023-01-29T15:38:27;13.93;;;8.88;;
39918;SDS011;25589;51.552;13.424;2023-01-29T15:40:54;15.77;;;9.45;;
39918;SDS011;25589;51.552;13.424;2023-01-29T15:43:25;18.10;;;9.95;;
39918;SDS011;25589;51.552;13.424;2023-01-29T15:45:59;13.75;;;9.95;;
39918;SDS011;25589;51.552;13.424;2023-01-29T15:48:30;16.48;;;9.68;;
39918;SDS011;25589;51.552;13.424;2023-01-29T15:51:00;17.25;;;10.07;;
39918;SDS011;25589;51.552;13.424;2023-01-29T15:53:36;17.95;;;10.18;;
39918;SDS011;25589;51.552;13.424;2023-01-29T15:56:11;17.48;;;9.18;;
39918;SDS011;25589;51.552;13.424;2023-01-29T15:58:39;18.42;;;11.00;;
39918;SDS011;25589;51.552;13.424;2023-01-29T16:01:06;16.52;;;9.10;;
39918;SDS011;25589;51.552;13.424;2023-01-29T16:03:32;15.00;;;9.13;;
39918;SDS011;25589;51.552;13.424;2023-01-29T16:06:00;19.00;;;10.57;;
39918;SDS011;25589;51.552;13.424;2023-01-29T16:08:26;16.25;;;9.50;;
39918;SDS011;25589;51.552;13.424;2023-01-29T16:10:53;15.00;;;8.55;;
39918;SDS011;25589;51.552;13.424;2023-01-29T16:13:25;13.93;;;8.80;;
39918;SDS011;25589;51.552;13.424;2023-01-29T16:15:54;15.50;;;8.80;;
39918;SDS011;25589;51.552;13.424;2023-01-29T16:18:28;14.65;;;9.18;;
39918;SDS011;25589;51.552;13.424;2023-01-29T16:20:56;15.10;;;8.55;;
39918;SDS011;25589;51.552;13.424;2023-01-29T16:23:26;14.25;;;8.93;;
39918;SDS011;25589;51.552;13.424;2023-01-29T16:26:01;14.55;;;8.68;;
39918;SDS011;25589;51.552;13.424;2023-01-29T16:28:30;17.27;;;9.05;;
39918;SDS011;25589;51.552;13.424;2023-01-29T16:30:56;11.77;;;8.40;;
39918;SDS011;25589;51.552;13.424;2023-01-29T16:33:27;14.15;;;8.57;;
39918;SDS011;25589;51.552;13.424;2023-01-29T16:35:58;17.38;;;9.02;;
39918;SDS011;25589;51.552;13.424;2023-01-29T16:38:28;14.73;;;10.20;;
39918;SDS011;25589;51.552;13.424;2023-01-29T16:46:04;11.05;;;7.95;;
39918;SDS011;25589;51.552;13.424;2023-01-29T16:48:33;15.60;;;8.85;;